sensor_id;sensor_type;location;lat;lon;timestamp;temperature;humidity
25973;DHT22;13765;51.166;4.466;2023-06-19T00:00:29;20.40;99.90
25973;DHT22;13765;51.166;4.466;2023-06-19T00:02:58;20.30;99.90
25973;DHT22;13765;51.166;4.466;2023-06-19T00:05:24;20.20;99.90
25973;DHT22;13765;51.166;4.466;2023-06-19T00:07:50;20.20;99.90
25973;DHT22;13765;51.166;4.466;2023-06-19T00:10:16;20.20;99.90
25973;DHT22;13765;51.166;4.466;2023-06-19T00:12:42;20.20;99.90
25973;DHT22;13765;51.166;4.466;2023-06-19T00:15:08;20.20;99.90
25973;DHT22;13765;51.166;4.466;2023-06-19T00:17:36;20.20;99.90
25973;DHT22;13765;51.166;4.466;2023-06-19T00:20:06;20.30;99.90
25973;DHT22;13765;51.166;4.466;2023-06-19T00:22:32;20.20;99.90
25973;DHT22;13765;51.166;4.466;2023-06-19T00:24:57;20.30;99.90
25973;DHT22;13765;51.166;4.466;2023-06-19T00:27:23;20.30;99.90
25973;DHT22;13765;51.166;4.466;2023-06-19T00:29:53;20.30;99.90
25973;DHT22;13765;51.166;4.466;2023-06-19T00:32:18;20.30;99.90
25973;DHT22;13765;51.166;4.466;2023-06-19T00:34:44;20.30;99.90
25973;DHT22;13765;51.166;4.466;2023-06-19T00:37:10;20.30;99.90
25973;DHT22;13765;51.166;4.466;2023-06-19T00:39:39;20.20;99.90
25973;DHT22;13765;51.166;4.466;2023-06-19T00:42:08;20.30;99.90
25973;DHT22;13765;51.166;4.466;2023-06-19T00:44:36;20.20;99.90
25973;DHT22;13765;51.166;4.466;2023-06-19T00:47:03;20.20;99.90
25973;DHT22;13765;51.166;4.466;2023-06-19T00:49:30;20.20;99.90
25973;DHT22;13765;51.166;4.466;2023-06-19T00:51:56;20.20;99.90
25973;DHT22;13765;51.166;4.466;2023-06-19T00:54:25;20.20;99.90
25973;DHT22;13765;51.166;4.466;2023-06-19T00:56:51;20.20;99.90
25973;DHT22;13765;51.166;4.466;2023-06-19T00:59:20;20.20;99.90
25973;DHT22;13765;51.166;4.466;2023-06-19T01:01:48;20.20;99.90
25973;DHT22;13765;51.166;4.466;2023-06-19T01:04:14;20.20;99.90
25973;DHT22;13765;51.166;4.466;2023-06-19T01:06:59;20.20;99.90
25973;DHT22;13765;51.166;4.466;2023-06-19T01:09:33;20.20;99.90
25973;DHT22;13765;51.166;4.466;2023-06-19T01:12:08;20.20;99.90
25973;DHT22;13765;51.166;4.466;2023-06-19T01:14:59;20.10;99.90
25973;DHT22;13765;51.166;4.466;2023-06-19T01:17:27;20.10;99.90
25973;DHT22;13765;51.166;4.466;2023-06-19T01:19:58;20.10;99.90
25973;DHT22;13765;51.166;4.466;2023-06-19T01:22:28;20.10;99.90
25973;DHT22;13765;51.166;4.466;2023-06-19T01:24:54;20.10;99.90
25973;DHT22;13765;51.166;4.466;2023-06-19T01:27:20;20.10;99.90
25973;DHT22;13765;51.166;4.466;2023-06-19T01:29:48;20.10;99.90
25973;DHT22;13765;51.166;4.466;2023-06-19T01:32:22;20.10;99.90
25973;DHT22;13765;51.166;4.466;2023-06-19T01:34:54;20.10;99.90
25973;DHT22;13765;51.166;4.466;2023-06-19T01:37:24;20.00;99.90
25973;DHT22;13765;51.166;4.466;2023-06-19T01:39:56;20.10;99.90
25973;DHT22;13765;51.166;4.466;2023-06-19T01:42:22;20.00;99.90
25973;DHT22;13765;51.166;4.466;2023-06-19T01:44:51;20.10;99.90
25973;DHT22;13765;51.166;4.466;2023-06-19T01:47:17;20.00;99.90
25973;DHT22;13765;51.166;4.466;2023-06-19T01:49:48;20.00;99.90
25973;DHT22;13765;51.166;4.466;2023-06-19T01:52:16;20.00;99.90
25973;DHT22;13765;51.166;4.466;2023-06-19T01:54:42;20.10;99.90
25973;DHT22;13765;51.166;4.466;2023-06-19T01:57:08;20.00;99.90
25973;DHT22;13765;51.166;4.466;2023-06-19T01:59:37;20.00;99.90
25973;DHT22;13765;51.166;4.466;2023-06-19T02:02:02;20.10;99.90
25973;DHT22;13765;51.166;4.466;2023-06-19T02:04:29;20.10;99.90
25973;DHT22;13765;51.166;4.466;2023-06-19T02:06:55;20.10;99.90
25973;DHT22;13765;51.166;4.466;2023-06-19T02:09:21;20.10;99.90
25973;DHT22;13765;51.166;4.466;2023-06-19T02:11:46;20.10;99.90
25973;DHT22;13765;51.166;4.466;2023-06-19T02:14:12;20.10;99.90
25973;DHT22;13765;51.166;4.466;2023-06-19T02:16:37;20.10;99.90
25973;DHT22;13765;51.166;4.466;2023-06-19T02:19:03;20.10;99.90
25973;DHT22;13765;51.166;4.466;2023-06-19T02:21:29;20.10;99.90
25973;DHT22;13765;51.166;4.466;2023-06-19T02:23:57;20.00;99.90
25973;DHT22;13765;51.166;4.466;2023-06-19T02:26:23;20.00;99.90
25973;DHT22;13765;51.166;4.466;2023-06-19T02:28:49;19.90;99.90
25973;DHT22;13765;51.166;4.466;2023-06-19T02:31:14;19.90;99.90
25973;DHT22;13765;51.166;4.466;2023-06-19T02:33:40;19.90;99.90
25973;DHT22;13765;51.166;4.466;2023-06-19T02:36:06;19.90;99.90
25973;DHT22;13765;51.166;4.466;2023-06-19T02:38:31;19.80;99.90
25973;DHT22;13765;51.166;4.466;2023-06-19T02:40:57;19.80;99.90
25973;DHT22;13765;51.166;4.466;2023-06-19T02:43:23;19.80;99.90
25973;DHT22;13765;51.166;4.466;2023-06-19T02:45:53;19.80;99.90
25973;DHT22;13765;51.166;4.466;2023-06-19T02:48:19;19.80;99.90
25973;DHT22;13765;51.166;4.466;2023-06-19T02:50:45;19.90;99.90
25973;DHT22;13765;51.166;4.466;2023-06-19T02:53:15;19.90;99.90
25973;DHT22;13765;51.166;4.466;2023-06-19T02:55:42;20.00;99.90
25973;DHT22;13765;51.166;4.466;2023-06-19T02:58:07;19.90;99.90
25973;DHT22;13765;51.166;4.466;2023-06-19T03:00:33;20.00;99.90
25973;DHT22;13765;51.166;4.466;2023-06-19T03:02:58;20.00;99.90
25973;DHT22;13765;51.166;4.466;2023-06-19T03:05:24;19.90;99.90
25973;DHT22;13765;51.166;4.466;2023-06-19T03:07:52;19.90;99.90
25973;DHT22;13765;51.166;4.466;2023-06-19T03:10:18;19.90;99.90
25973;DHT22;13765;51.166;4.466;2023-06-19T03:12:44;19.90;99.90
25973;DHT22;13765;51.166;4.466;2023-06-19T03:15:12;19.90;99.90
25973;DHT22;13765;51.166;4.466;2023-06-19T03:17:37;19.90;99.90
25973;DHT22;13765;51.166;4.466;2023-06-19T03:20:06;20.00;99.90
25973;DHT22;13765;51.166;4.466;2023-06-19T03:22:31;19.90;99.90
25973;DHT22;13765;51.166;4.466;2023-06-19T03:24:57;19.90;99.90
25973;DHT22;13765;51.166;4.466;2023-06-19T03:27:27;19.90;99.90
25973;DHT22;13765;51.166;4.466;2023-06-19T03:29:56;20.00;99.90
25973;DHT22;13765;51.166;4.466;2023-06-19T03:32:22;19.90;99.90
25973;DHT22;13765;51.166;4.466;2023-06-19T03:34:48;20.00;99.90
25973;DHT22;13765;51.166;4.466;2023-06-19T03:37:13;20.00;99.90
25973;DHT22;13765;51.166;4.466;2023-06-19T03:39:42;20.00;99.90
25973;DHT22;13765;51.166;4.466;2023-06-19T03:42:10;20.00;99.90
25973;DHT22;13765;51.166;4.466;2023-06-19T03:44:35;20.00;99.90
25973;DHT22;13765;51.166;4.466;2023-06-19T03:47:04;19.90;99.90
25973;DHT22;13765;51.166;4.466;2023-06-19T03:49:29;19.80;99.90
25973;DHT22;13765;51.166;4.466;2023-06-19T03:51:57;19.80;99.90
25973;DHT22;13765;51.166;4.466;2023-06-19T03:54:23;19.70;99.90
25973;DHT22;13765;51.166;4.466;2023-06-19T03:56:48;19.70;99.90
25973;DHT22;13765;51.166;4.466;2023-06-19T03:59:16;19.60;99.90
25973;DHT22;13765;51.166;4.466;2023-06-19T04:01:42;19.60;99.90
25973;DHT22;13765;51.166;4.466;2023-06-19T04:04:10;19.50;99.90
25973;DHT22;13765;51.166;4.466;2023-06-19T04:06:36;19.50;99.90
25973;DHT22;13765;51.166;4.466;2023-06-19T04:09:01;19.50;99.90
25973;DHT22;13765;51.166;4.466;2023-06-19T04:11:27;19.50;99.90
25973;DHT22;13765;51.166;4.466;2023-06-19T04:13:53;19.50;99.90
25973;DHT22;13765;51.166;4.466;2023-06-19T04:16:18;19.50;99.90
25973;DHT22;13765;51.166;4.466;2023-06-19T04:18:44;19.50;99.90
25973;DHT22;13765;51.166;4.466;2023-06-19T04:21:13;19.60;99.90
25973;DHT22;13765;51.166;4.466;2023-06-19T04:23:39;19.60;99.90
25973;DHT22;13765;51.166;4.466;2023-06-19T04:26:04;19.70;99.90
25973;DHT22;13765;51.166;4.466;2023-06-19T04:28:30;19.60;99.90
25973;DHT22;13765;51.166;4.466;2023-06-19T04:30:56;19.60;99.90
25973;DHT22;13765;51.166;4.466;2023-06-19T04:33:29;19.60;99.90
25973;DHT22;13765;51.166;4.466;2023-06-19T04:35:56;19.60;99.90
25973;DHT22;13765;51.166;4.466;2023-06-19T04:38:24;19.60;99.90
25973;DHT22;13765;51.166;4.466;2023-06-19T04:40:53;19.60;99.90
25973;DHT22;13765;51.166;4.466;2023-06-19T04:43:19;19.50;99.90
25973;DHT22;13765;51.166;4.466;2023-06-19T04:45:44;19.60;99.90
25973;DHT22;13765;51.166;4.466;2023-06-19T04:48:10;19.60;99.90
25973;DHT22;13765;51.166;4.466;2023-06-19T04:50:37;19.60;99.90
25973;DHT22;13765;51.166;4.466;2023-06-19T04:53:05;19.70;99.90
25973;DHT22;13765;51.166;4.466;2023-06-19T04:55:31;19.70;99.90
25973;DHT22;13765;51.166;4.466;2023-06-19T04:57:57;19.70;99.90
25973;DHT22;13765;51.166;4.466;2023-06-19T05:00:22;19.70;99.90
25973;DHT22;13765;51.166;4.466;2023-06-19T05:02:49;19.60;99.90
25973;DHT22;13765;51.166;4.466;2023-06-19T05:05:15;19.50;99.90
25973;DHT22;13765;51.166;4.466;2023-06-19T05:07:46;19.50;99.90
25973;DHT22;13765;51.166;4.466;2023-06-19T05:10:12;19.50;99.90
25973;DHT22;13765;51.166;4.466;2023-06-19T05:12:37;19.50;99.90
25973;DHT22;13765;51.166;4.466;2023-06-19T05:15:03;19.50;99.90
25973;DHT22;13765;51.166;4.466;2023-06-19T05:17:31;19.50;99.90
25973;DHT22;13765;51.166;4.466;2023-06-19T05:19:57;19.60;99.90
25973;DHT22;13765;51.166;4.466;2023-06-19T05:22:25;19.70;99.90
25973;DHT22;13765;51.166;4.466;2023-06-19T05:24:52;20.00;99.90
25973;DHT22;13765;51.166;4.466;2023-06-19T05:27:17;20.20;99.90
25973;DHT22;13765;51.166;4.466;2023-06-19T05:29:43;20.40;99.90
25973;DHT22;13765;51.166;4.466;2023-06-19T05:32:09;20.50;99.90
25973;DHT22;13765;51.166;4.466;2023-06-19T05:34:36;20.50;99.90
25973;DHT22;13765;51.166;4.466;2023-06-19T05:37:02;20.60;99.90
25973;DHT22;13765;51.166;4.466;2023-06-19T05:39:31;20.60;99.90
25973;DHT22;13765;51.166;4.466;2023-06-19T05:41:57;20.70;99.90
25973;DHT22;13765;51.166;4.466;2023-06-19T05:44:22;20.70;99.90
25973;DHT22;13765;51.166;4.466;2023-06-19T05:46:48;20.70;99.90
25973;DHT22;13765;51.166;4.466;2023-06-19T05:49:14;20.90;99.90
25973;DHT22;13765;51.166;4.466;2023-06-19T05:51:41;21.30;99.90
25973;DHT22;13765;51.166;4.466;2023-06-19T05:54:09;21.50;99.90
25973;DHT22;13765;51.166;4.466;2023-06-19T05:56:35;21.70;99.90
25973;DHT22;13765;51.166;4.466;2023-06-19T05:59:02;21.80;99.90
25973;DHT22;13765;51.166;4.466;2023-06-19T06:01:28;22.00;99.90
25973;DHT22;13765;51.166;4.466;2023-06-19T06:03:54;22.20;99.90
25973;DHT22;13765;51.166;4.466;2023-06-19T06:06:20;22.40;99.90
25973;DHT22;13765;51.166;4.466;2023-06-19T06:08:49;22.30;99.90
25973;DHT22;13765;51.166;4.466;2023-06-19T06:11:14;22.30;99.90
25973;DHT22;13765;51.166;4.466;2023-06-19T06:13:40;22.10;99.90
25973;DHT22;13765;51.166;4.466;2023-06-19T06:16:06;22.10;99.90
25973;DHT22;13765;51.166;4.466;2023-06-19T06:18:31;21.80;99.90
25973;DHT22;13765;51.166;4.466;2023-06-19T06:20:57;21.80;99.90
25973;DHT22;13765;51.166;4.466;2023-06-19T06:23:27;21.50;99.90
25973;DHT22;13765;51.166;4.466;2023-06-19T06:25:52;21.50;99.90
25973;DHT22;13765;51.166;4.466;2023-06-19T06:28:18;21.50;99.90
25973;DHT22;13765;51.166;4.466;2023-06-19T06:30:44;21.20;99.90
25973;DHT22;13765;51.166;4.466;2023-06-19T06:33:09;20.90;99.90
25973;DHT22;13765;51.166;4.466;2023-06-19T06:35:37;21.00;99.90
25973;DHT22;13765;51.166;4.466;2023-06-19T06:38:03;21.10;99.90
25973;DHT22;13765;51.166;4.466;2023-06-19T06:40:29;21.30;99.90
25973;DHT22;13765;51.166;4.466;2023-06-19T06:42:54;21.30;99.90
25973;DHT22;13765;51.166;4.466;2023-06-19T06:45:20;21.20;99.90
25973;DHT22;13765;51.166;4.466;2023-06-19T06:47:48;21.30;99.90
25973;DHT22;13765;51.166;4.466;2023-06-19T06:50:14;21.50;99.90
25973;DHT22;13765;51.166;4.466;2023-06-19T06:52:40;21.50;99.90
25973;DHT22;13765;51.166;4.466;2023-06-19T06:55:06;21.50;99.90
25973;DHT22;13765;51.166;4.466;2023-06-19T06:57:32;21.60;99.90
25973;DHT22;13765;51.166;4.466;2023-06-19T06:59:57;21.70;99.90
25973;DHT22;13765;51.166;4.466;2023-06-19T07:02:23;21.70;99.90
25973;DHT22;13765;51.166;4.466;2023-06-19T07:04:49;21.80;99.90
25973;DHT22;13765;51.166;4.466;2023-06-19T07:07:15;21.80;99.90
25973;DHT22;13765;51.166;4.466;2023-06-19T07:09:41;21.90;99.90
25973;DHT22;13765;51.166;4.466;2023-06-19T07:12:09;22.00;99.90
25973;DHT22;13765;51.166;4.466;2023-06-19T07:14:34;21.70;99.90
25973;DHT22;13765;51.166;4.466;2023-06-19T07:17:02;21.60;99.90
25973;DHT22;13765;51.166;4.466;2023-06-19T07:19:28;21.40;99.90
25973;DHT22;13765;51.166;4.466;2023-06-19T07:21:55;21.30;99.90
25973;DHT22;13765;51.166;4.466;2023-06-19T07:24:21;21.30;99.90
25973;DHT22;13765;51.166;4.466;2023-06-19T07:26:46;21.30;99.90
25973;DHT22;13765;51.166;4.466;2023-06-19T07:29:14;21.50;99.90
25973;DHT22;13765;51.166;4.466;2023-06-19T07:31:40;21.80;99.90
25973;DHT22;13765;51.166;4.466;2023-06-19T07:34:08;21.80;99.90
25973;DHT22;13765;51.166;4.466;2023-06-19T07:36:34;21.60;99.90
25973;DHT22;13765;51.166;4.466;2023-06-19T07:38:59;21.60;99.90
25973;DHT22;13765;51.166;4.466;2023-06-19T07:41:25;21.50;99.90
25973;DHT22;13765;51.166;4.466;2023-06-19T07:43:51;21.40;99.90
25973;DHT22;13765;51.166;4.466;2023-06-19T07:46:16;21.40;99.90
25973;DHT22;13765;51.166;4.466;2023-06-19T07:48:42;21.40;99.90
25973;DHT22;13765;51.166;4.466;2023-06-19T07:51:08;21.50;99.90
25973;DHT22;13765;51.166;4.466;2023-06-19T07:53:33;21.80;99.90
25973;DHT22;13765;51.166;4.466;2023-06-19T07:55:59;21.80;99.90
25973;DHT22;13765;51.166;4.466;2023-06-19T07:58:25;21.80;99.90
25973;DHT22;13765;51.166;4.466;2023-06-19T08:00:50;21.70;99.90
25973;DHT22;13765;51.166;4.466;2023-06-19T08:03:16;22.10;99.90
25973;DHT22;13765;51.166;4.466;2023-06-19T08:05:42;22.50;99.90
25973;DHT22;13765;51.166;4.466;2023-06-19T08:08:07;22.60;99.90
25973;DHT22;13765;51.166;4.466;2023-06-19T08:10:33;22.30;99.90
25973;DHT22;13765;51.166;4.466;2023-06-19T08:12:58;22.00;99.90
25973;DHT22;13765;51.166;4.466;2023-06-19T08:15:24;21.70;99.90
25973;DHT22;13765;51.166;4.466;2023-06-19T08:17:50;21.80;99.90
25973;DHT22;13765;51.166;4.466;2023-06-19T08:20:15;21.80;99.90
25973;DHT22;13765;51.166;4.466;2023-06-19T08:22:41;22.00;99.90
25973;DHT22;13765;51.166;4.466;2023-06-19T08:25:07;22.10;99.90
25973;DHT22;13765;51.166;4.466;2023-06-19T08:27:33;22.30;99.90
25973;DHT22;13765;51.166;4.466;2023-06-19T08:29:58;22.80;99.90
25973;DHT22;13765;51.166;4.466;2023-06-19T08:32:24;23.20;99.90
25973;DHT22;13765;51.166;4.466;2023-06-19T08:34:50;23.50;99.90
25973;DHT22;13765;51.166;4.466;2023-06-19T08:37:19;23.70;99.90
25973;DHT22;13765;51.166;4.466;2023-06-19T08:39:45;24.00;99.90
25973;DHT22;13765;51.166;4.466;2023-06-19T08:42:10;24.00;99.90
25973;DHT22;13765;51.166;4.466;2023-06-19T08:44:36;24.50;99.90
25973;DHT22;13765;51.166;4.466;2023-06-19T08:47:03;24.70;99.90
25973;DHT22;13765;51.166;4.466;2023-06-19T08:49:34;25.30;99.90
25973;DHT22;13765;51.166;4.466;2023-06-19T08:52:02;25.90;99.90
25973;DHT22;13765;51.166;4.466;2023-06-19T08:54:29;26.00;99.90
25973;DHT22;13765;51.166;4.466;2023-06-19T08:56:55;26.10;99.90
25973;DHT22;13765;51.166;4.466;2023-06-19T08:59:21;26.10;99.90
25973;DHT22;13765;51.166;4.466;2023-06-19T09:01:51;25.90;99.90
25973;DHT22;13765;51.166;4.466;2023-06-19T09:04:20;26.30;99.90
25973;DHT22;13765;51.166;4.466;2023-06-19T09:06:55;26.30;99.90
25973;DHT22;13765;51.166;4.466;2023-06-19T09:09:22;26.10;99.90
25973;DHT22;13765;51.166;4.466;2023-06-19T09:14:47;26.60;99.90
25973;DHT22;13765;51.166;4.466;2023-06-19T09:17:18;26.40;99.90
25973;DHT22;13765;51.166;4.466;2023-06-19T09:19:51;26.00;99.90
25973;DHT22;13765;51.166;4.466;2023-06-19T09:22:20;26.10;99.90
25973;DHT22;13765;51.166;4.466;2023-06-19T09:24:46;25.90;99.90
25973;DHT22;13765;51.166;4.466;2023-06-19T09:27:17;25.80;99.90
25973;DHT22;13765;51.166;4.466;2023-06-19T09:29:49;25.80;99.90
25973;DHT22;13765;51.166;4.466;2023-06-19T09:32:20;26.20;99.90
25973;DHT22;13765;51.166;4.466;2023-06-19T09:34:46;26.60;99.90
25973;DHT22;13765;51.166;4.466;2023-06-19T09:37:12;26.70;99.90
25973;DHT22;13765;51.166;4.466;2023-06-19T09:39:39;26.70;99.90
25973;DHT22;13765;51.166;4.466;2023-06-19T09:42:09;26.80;99.90
25973;DHT22;13765;51.166;4.466;2023-06-19T09:44:42;27.00;99.90
25973;DHT22;13765;51.166;4.466;2023-06-19T09:47:32;27.10;99.90
25973;DHT22;13765;51.166;4.466;2023-06-19T09:50:00;26.70;99.90
25973;DHT22;13765;51.166;4.466;2023-06-19T09:52:26;26.80;99.90
25973;DHT22;13765;51.166;4.466;2023-06-19T09:54:54;27.00;99.90
25973;DHT22;13765;51.166;4.466;2023-06-19T09:57:20;27.00;99.90
25973;DHT22;13765;51.166;4.466;2023-06-19T09:59:49;26.70;99.90
25973;DHT22;13765;51.166;4.466;2023-06-19T10:02:19;26.70;99.90
25973;DHT22;13765;51.166;4.466;2023-06-19T10:04:49;26.80;99.90
25973;DHT22;13765;51.166;4.466;2023-06-19T10:07:20;27.20;99.90
25973;DHT22;13765;51.166;4.466;2023-06-19T10:10:33;27.40;99.90
25973;DHT22;13765;51.166;4.466;2023-06-19T10:13:21;27.50;99.90
25973;DHT22;13765;51.166;4.466;2023-06-19T10:15:46;27.20;99.90
25973;DHT22;13765;51.166;4.466;2023-06-19T10:18:17;27.50;99.90
25973;DHT22;13765;51.166;4.466;2023-06-19T10:20:44;27.60;99.90
25973;DHT22;13765;51.166;4.466;2023-06-19T10:23:14;28.00;99.90
25973;DHT22;13765;51.166;4.466;2023-06-19T10:25:47;27.40;99.90
25973;DHT22;13765;51.166;4.466;2023-06-19T10:28:30;27.30;99.90
25973;DHT22;13765;51.166;4.466;2023-06-19T10:31:08;27.50;99.90
25973;DHT22;13765;51.166;4.466;2023-06-19T10:33:36;27.70;99.90
25973;DHT22;13765;51.166;4.466;2023-06-19T10:36:18;27.70;99.90
25973;DHT22;13765;51.166;4.466;2023-06-19T10:38:45;27.50;99.90
25973;DHT22;13765;51.166;4.466;2023-06-19T10:41:19;28.00;99.90
25973;DHT22;13765;51.166;4.466;2023-06-19T10:43:57;27.90;99.90
25973;DHT22;13765;51.166;4.466;2023-06-19T10:46:28;28.20;99.90
25973;DHT22;13765;51.166;4.466;2023-06-19T10:48:55;28.40;99.90
25973;DHT22;13765;51.166;4.466;2023-06-19T10:51:28;28.50;99.90
25973;DHT22;13765;51.166;4.466;2023-06-19T10:53:55;28.30;99.90
25973;DHT22;13765;51.166;4.466;2023-06-19T10:56:22;28.50;99.90
25973;DHT22;13765;51.166;4.466;2023-06-19T10:58:48;28.50;99.90
25973;DHT22;13765;51.166;4.466;2023-06-19T11:01:14;28.50;99.90
25973;DHT22;13765;51.166;4.466;2023-06-19T11:03:39;28.70;99.90
25973;DHT22;13765;51.166;4.466;2023-06-19T11:06:19;29.10;99.90
25973;DHT22;13765;51.166;4.466;2023-06-19T11:08:51;28.90;99.90
25973;DHT22;13765;51.166;4.466;2023-06-19T11:11:18;28.90;99.90
25973;DHT22;13765;51.166;4.466;2023-06-19T11:13:45;29.00;99.90
25973;DHT22;13765;51.166;4.466;2023-06-19T11:16:14;29.20;99.90
25973;DHT22;13765;51.166;4.466;2023-06-19T11:18:40;28.80;99.90
25973;DHT22;13765;51.166;4.466;2023-06-19T11:21:08;29.20;99.90
25973;DHT22;13765;51.166;4.466;2023-06-19T11:23:34;29.50;99.90
25973;DHT22;13765;51.166;4.466;2023-06-19T11:26:04;29.20;99.90
25973;DHT22;13765;51.166;4.466;2023-06-19T11:28:30;29.00;99.90
25973;DHT22;13765;51.166;4.466;2023-06-19T11:31:00;29.00;99.90
25973;DHT22;13765;51.166;4.466;2023-06-19T11:33:29;29.30;99.90
25973;DHT22;13765;51.166;4.466;2023-06-19T11:36:00;30.10;99.90
25973;DHT22;13765;51.166;4.466;2023-06-19T11:38:26;30.20;99.90
25973;DHT22;13765;51.166;4.466;2023-06-19T11:40:56;30.20;99.90
25973;DHT22;13765;51.166;4.466;2023-06-19T11:43:29;30.50;99.90
25973;DHT22;13765;51.166;4.466;2023-06-19T11:46:03;30.90;99.90
25973;DHT22;13765;51.166;4.466;2023-06-19T11:48:29;31.20;99.90
25973;DHT22;13765;51.166;4.466;2023-06-19T11:50:54;30.90;99.90
25973;DHT22;13765;51.166;4.466;2023-06-19T11:53:23;29.80;99.90
25973;DHT22;13765;51.166;4.466;2023-06-19T11:55:50;29.90;99.90
25973;DHT22;13765;51.166;4.466;2023-06-19T11:58:16;29.70;99.90
25973;DHT22;13765;51.166;4.466;2023-06-19T12:00:48;29.30;99.90
25973;DHT22;13765;51.166;4.466;2023-06-19T12:03:14;29.20;99.90
25973;DHT22;13765;51.166;4.466;2023-06-19T12:05:39;29.20;99.90
25973;DHT22;13765;51.166;4.466;2023-06-19T12:08:05;29.00;99.90
25973;DHT22;13765;51.166;4.466;2023-06-19T12:10:34;29.30;99.90
25973;DHT22;13765;51.166;4.466;2023-06-19T12:13:00;29.40;99.90
25973;DHT22;13765;51.166;4.466;2023-06-19T12:15:26;30.00;99.90
25973;DHT22;13765;51.166;4.466;2023-06-19T12:17:56;30.00;99.90
25973;DHT22;13765;51.166;4.466;2023-06-19T12:20:23;30.10;99.90
25973;DHT22;13765;51.166;4.466;2023-06-19T12:22:50;30.20;99.90
25973;DHT22;13765;51.166;4.466;2023-06-19T12:25:15;30.50;99.90
25973;DHT22;13765;51.166;4.466;2023-06-19T12:27:43;30.30;99.70
25973;DHT22;13765;51.166;4.466;2023-06-19T12:30:09;30.40;99.40
25973;DHT22;13765;51.166;4.466;2023-06-19T15:39:23;30.80;92.60
25973;DHT22;13765;51.166;4.466;2023-06-19T15:41:51;31.00;93.10
25973;DHT22;13765;51.166;4.466;2023-06-19T15:44:16;30.90;92.40
25973;DHT22;13765;51.166;4.466;2023-06-19T15:46:42;31.00;91.30
25973;DHT22;13765;51.166;4.466;2023-06-19T15:49:07;30.80;91.40
25973;DHT22;13765;51.166;4.466;2023-06-19T15:51:40;30.70;91.70
25973;DHT22;13765;51.166;4.466;2023-06-19T15:54:06;31.10;92.60
25973;DHT22;13765;51.166;4.466;2023-06-19T15:56:32;31.10;91.30
25973;DHT22;13765;51.166;4.466;2023-06-19T15:58:57;31.20;90.40
25973;DHT22;13765;51.166;4.466;2023-06-19T16:01:23;31.20;87.90
25973;DHT22;13765;51.166;4.466;2023-06-19T16:03:49;31.30;89.40
25973;DHT22;13765;51.166;4.466;2023-06-19T16:06:14;31.70;90.00
25973;DHT22;13765;51.166;4.466;2023-06-19T16:08:43;31.80;89.60
25973;DHT22;13765;51.166;4.466;2023-06-19T16:11:10;31.40;90.10
25973;DHT22;13765;51.166;4.466;2023-06-19T16:13:38;30.90;89.80
25973;DHT22;13765;51.166;4.466;2023-06-19T16:16:03;30.90;90.10
25973;DHT22;13765;51.166;4.466;2023-06-19T16:18:29;30.90;88.50
25973;DHT22;13765;51.166;4.466;2023-06-19T16:20:55;30.90;89.50
25973;DHT22;13765;51.166;4.466;2023-06-19T16:23:20;31.20;88.60
25973;DHT22;13765;51.166;4.466;2023-06-19T16:25:46;31.50;87.20
25973;DHT22;13765;51.166;4.466;2023-06-19T16:28:12;31.50;86.80
25973;DHT22;13765;51.166;4.466;2023-06-19T16:30:37;31.30;90.10
25973;DHT22;13765;51.166;4.466;2023-06-19T16:33:03;30.90;89.40
25973;DHT22;13765;51.166;4.466;2023-06-19T16:35:29;31.00;90.10
25973;DHT22;13765;51.166;4.466;2023-06-19T16:37:55;30.80;89.70
25973;DHT22;13765;51.166;4.466;2023-06-19T16:40:22;30.80;90.50
25973;DHT22;13765;51.166;4.466;2023-06-19T16:42:53;30.70;90.30
25973;DHT22;13765;51.166;4.466;2023-06-19T16:45:19;30.70;90.70
25973;DHT22;13765;51.166;4.466;2023-06-19T16:47:47;30.40;90.10
25973;DHT22;13765;51.166;4.466;2023-06-19T16:50:15;30.50;90.50
25973;DHT22;13765;51.166;4.466;2023-06-19T16:52:40;30.00;90.40
25973;DHT22;13765;51.166;4.466;2023-06-19T16:55:08;29.70;91.50
25973;DHT22;13765;51.166;4.466;2023-06-19T16:57:36;29.50;91.90
25973;DHT22;13765;51.166;4.466;2023-06-19T17:00:01;29.70;92.00
25973;DHT22;13765;51.166;4.466;2023-06-19T17:02:28;29.70;91.80
25973;DHT22;13765;51.166;4.466;2023-06-19T17:04:54;29.80;92.10
25973;DHT22;13765;51.166;4.466;2023-06-19T17:07:20;29.50;92.10
25973;DHT22;13765;51.166;4.466;2023-06-19T17:09:45;28.90;92.30
25973;DHT22;13765;51.166;4.466;2023-06-19T17:12:13;28.90;92.30
25973;DHT22;13765;51.166;4.466;2023-06-19T17:14:40;29.10;92.80
25973;DHT22;13765;51.166;4.466;2023-06-19T17:17:06;29.10;93.60
25973;DHT22;13765;51.166;4.466;2023-06-19T17:19:32;29.40;93.10
25973;DHT22;13765;51.166;4.466;2023-06-19T17:22:00;29.30;92.70
25973;DHT22;13765;51.166;4.466;2023-06-19T17:24:25;29.30;92.90
25973;DHT22;13765;51.166;4.466;2023-06-19T17:26:53;29.20;93.00
25973;DHT22;13765;51.166;4.466;2023-06-19T17:29:26;29.20;92.90
25973;DHT22;13765;51.166;4.466;2023-06-19T17:31:55;29.20;92.80
25973;DHT22;13765;51.166;4.466;2023-06-19T17:34:24;29.10;93.20
25973;DHT22;13765;51.166;4.466;2023-06-19T17:36:50;29.10;92.90
25973;DHT22;13765;51.166;4.466;2023-06-19T17:39:15;29.20;93.10
25973;DHT22;13765;51.166;4.466;2023-06-19T17:41:42;29.10;93.30
25973;DHT22;13765;51.166;4.466;2023-06-19T17:44:07;29.30;93.80
25973;DHT22;13765;51.166;4.466;2023-06-19T17:46:33;29.20;93.20
25973;DHT22;13765;51.166;4.466;2023-06-19T17:48:58;29.00;94.00
25973;DHT22;13765;51.166;4.466;2023-06-19T17:51:24;28.90;94.20
25973;DHT22;13765;51.166;4.466;2023-06-19T17:53:52;28.90;94.00
25973;DHT22;13765;51.166;4.466;2023-06-19T17:56:20;28.80;93.50
25973;DHT22;13765;51.166;4.466;2023-06-19T17:58:46;28.70;94.30
25973;DHT22;13765;51.166;4.466;2023-06-19T18:01:14;28.60;94.10
25973;DHT22;13765;51.166;4.466;2023-06-19T18:03:40;28.60;94.80
25973;DHT22;13765;51.166;4.466;2023-06-19T18:06:08;28.60;94.60
25973;DHT22;13765;51.166;4.466;2023-06-19T18:08:34;28.50;94.70
25973;DHT22;13765;51.166;4.466;2023-06-19T18:11:00;28.30;95.30
25973;DHT22;13765;51.166;4.466;2023-06-19T18:13:27;28.30;95.70
25973;DHT22;13765;51.166;4.466;2023-06-19T18:15:55;28.30;95.30
25973;DHT22;13765;51.166;4.466;2023-06-19T18:18:21;28.20;95.40
25973;DHT22;13765;51.166;4.466;2023-06-19T18:20:46;28.10;95.60
25973;DHT22;13765;51.166;4.466;2023-06-19T18:23:12;28.10;96.10
25973;DHT22;13765;51.166;4.466;2023-06-19T18:25:38;28.00;96.00
25973;DHT22;13765;51.166;4.466;2023-06-19T18:28:03;28.00;96.60
25973;DHT22;13765;51.166;4.466;2023-06-19T18:30:31;28.00;96.90
25973;DHT22;13765;51.166;4.466;2023-06-19T18:32:57;28.00;97.30
25973;DHT22;13765;51.166;4.466;2023-06-19T18:35:22;28.00;97.10
25973;DHT22;13765;51.166;4.466;2023-06-19T18:37:48;28.00;97.10
25973;DHT22;13765;51.166;4.466;2023-06-19T18:40:14;28.00;96.80